Time;durP1;ratioP1;P1;durP2;ratioP2;P2;SDS_P1;SDS_P2;PMS_P1;PMS_P2;Temp;Humidity;BMP_temperature;BMP_pressure;BME280_temperature;BME280_humidity;BME280_pressure;Samples;Min_cycle;Max_cycle;Signal;HPM_P1;HPM_P2
2021/09/27 00:00:27;;;;;;;3.72;2.50;;;;;;;10.08;79.85;100321.08;1646267;87;21006;-84
2021/09/27 00:02:53;;;;;;;3.55;2.65;;;;;;;10.05;80.03;100324.75;1622335;87;21567;-79
2021/09/27 00:05:20;;;;;;;6.83;2.10;;;;;;;9.99;80.26;100321.12;1646271;87;21110;-78
2021/09/27 00:07:47;;;;;;;2.67;2.30;;;;;;;9.96;80.52;100320.25;1645797;87;21152;-78
2021/09/27 00:10:18;;;;;;;4.22;2.35;;;;;;;9.94;80.71;100315.61;1645069;87;20963;-76
2021/09/27 00:12:45;;;;;;;4.00;2.50;;;;;;;9.94;80.81;100319.64;1657839;86;20968;-76
2021/09/27 00:15:15;;;;;;;4.85;2.08;;;;;;;9.95;80.96;100325.84;1656793;86;21080;-77
2021/09/27 00:17:41;;;;;;;2.05;1.85;;;;;;;9.92;81.10;100319.08;1659631;86;21049;-79
2021/09/27 00:20:09;;;;;;;3.62;2.30;;;;;;;9.92;81.17;100332.51;1659888;86;22295;-82
2021/09/27 00:22:36;;;;;;;9.35;2.50;;;;;;;9.91;81.23;100326.01;1641924;85;21049;-80
2021/09/27 00:25:04;;;;;;;4.78;2.50;;;;;;;9.86;81.37;100330.73;1666302;85;21034;-77
2021/09/27 00:27:30;;;;;;;4.53;2.40;;;;;;;9.85;81.47;100326.40;1671390;84;21085;-87
2021/09/27 00:29:59;;;;;;;2.55;2.35;;;;;;;9.85;81.51;100327.74;1686495;84;21042;-86
2021/09/27 00:32:25;;;;;;;3.40;2.55;;;;;;;9.84;81.77;100336.02;1667525;84;21158;-88
2021/09/27 00:34:51;;;;;;;3.47;2.22;;;;;;;9.85;81.70;100345.73;1688206;84;20950;-88
2021/09/27 00:37:17;;;;;;;2.35;2.12;;;;;;;9.82;81.82;100348.88;1687708;84;20973;-86
2021/09/27 00:39:44;;;;;;;3.60;2.65;;;;;;;9.80;81.84;100345.07;1688789;85;20985;-85
2021/09/27 00:42:10;;;;;;;4.35;2.50;;;;;;;9.79;81.99;100350.14;1671421;85;21010;-87
2021/09/27 00:44:37;;;;;;;3.47;2.02;;;;;;;9.76;82.09;100343.89;1690119;84;21136;-86
2021/09/27 00:47:04;;;;;;;3.50;2.75;;;;;;;9.77;82.20;100348.75;1660835;86;20963;-87
2021/09/27 00:49:30;;;;;;;2.60;2.40;;;;;;;9.74;82.29;100347.84;1677093;85;20978;-92
2021/09/27 00:51:56;;;;;;;4.50;2.60;;;;;;;9.73;82.32;100347.05;1634167;87;21537;-80
2021/09/27 00:54:27;;;;;;;4.75;2.35;;;;;;;9.71;82.34;100353.68;1635616;86;21178;-74
2021/09/27 00:56:58;;;;;;;5.58;1.90;;;;;;;9.70;82.40;100360.09;1639414;86;21049;-77
2021/09/27 00:59:25;;;;;;;4.55;2.30;;;;;;;9.65;82.62;100354.06;1619260;86;20995;-78
2021/09/27 01:01:52;;;;;;;2.67;1.82;;;;;;;9.63;82.69;100361.02;1625073;87;21052;-80
2021/09/27 01:04:18;;;;;;;4.92;2.47;;;;;;;9.62;82.86;100368.78;1639724;86;20969;-82
2021/09/27 01:07:13;;;;;;;2.65;1.85;;;;;;;9.61;82.95;100359.08;1651427;86;21564;-83
2021/09/27 01:10:17;;;;;;;8.75;2.33;;;;;;;9.52;83.45;100362.30;1625674;87;21055;-81
2021/09/27 01:12:56;;;;;;;2.67;1.90;;;;;;;9.46;83.59;100367.22;1655109;86;25543;-80
2021/09/27 01:15:48;;;;;;;2.37;2.15;;;;;;;9.44;83.87;100370.16;1651006;87;21076;-79
2021/09/27 01:19:05;;;;;;;3.30;2.47;;;;;;;9.43;84.34;100369.03;1631900;87;21077;-85
2021/09/27 01:22:09;;;;;;;3.35;2.50;;;;;;;9.40;84.46;100360.88;1651028;86;21030;-83
2021/09/27 01:24:56;;;;;;;4.10;2.85;;;;;;;9.40;84.51;100368.15;1632011;87;22044;-81
2021/09/27 01:28:06;;;;;;;3.83;2.20;;;;;;;9.41;84.52;100370.59;1640164;86;20958;-81
2021/09/27 01:31:10;;;;;;;5.25;2.62;;;;;;;9.39;84.73;100375.38;1652616;86;21056;-82
2021/09/27 01:34:12;;;;;;;4.00;2.33;;;;;;;9.42;84.59;100380.29;1639357;87;21063;-78
2021/09/27 01:36:59;;;;;;;5.03;2.35;;;;;;;9.43;84.48;100375.22;1631862;87;21099;-78
2021/09/27 01:40:19;;;;;;;3.90;2.55;;;;;;;9.48;84.33;100375.36;1637920;87;21234;-79
2021/09/27 01:43:03;;;;;;;3.80;2.05;;;;;;;9.48;84.35;100381.25;1638691;87;21061;-79
2021/09/27 01:45:56;;;;;;;1.98;1.72;;;;;;;9.52;84.23;100380.58;1638781;87;20990;-79
2021/09/27 01:48:37;;;;;;;3.75;2.22;;;;;;;9.53;84.11;100382.74;1639507;87;21067;-80
2021/09/27 01:51:27;;;;;;;7.12;1.92;;;;;;;9.56;83.98;100380.42;1638043;87;21003;-82
2021/09/27 01:54:28;;;;;;;3.47;2.30;;;;;;;9.54;84.04;100394.58;1569638;90;21782;-84
2021/09/27 01:57:15;;;;;;;5.33;2.25;;;;;;;9.51;84.16;100391.02;1613818;87;20966;-84
2021/09/27 02:00:00;;;;;;;4.03;1.90;;;;;;;9.42;84.55;100392.38;1643331;85;21044;-80
2021/09/27 02:02:59;;;;;;;3.08;1.98;;;;;;;9.45;84.68;100393.77;1644563;87;21547;-78
2021/09/27 02:05:37;;;;;;;2.72;2.35;;;;;;;9.47;84.66;100399.75;1645138;87;21618;-77
2021/09/27 02:08:15;;;;;;;6.40;2.45;;;;;;;9.48;84.73;100397.37;1622111;87;21715;-77
2021/09/27 02:11:16;;;;;;;2.85;1.92;;;;;;;9.43;84.77;100400.73;1619673;87;21033;-81
2021/09/27 02:14:13;;;;;;;2.70;2.08;;;;;;;9.39;85.00;100402.75;1622015;87;21003;-78
2021/09/27 02:16:57;;;;;;;2.95;2.15;;;;;;;9.31;85.26;100397.66;1626425;87;21504;-77
2021/09/27 02:20:01;;;;;;;5.72;2.25;;;;;;;9.30;85.63;100400.06;1615299;87;21354;-77
2021/09/27 02:22:49;;;;;;;5.62;2.52;;;;;;;9.29;85.74;100406.47;1619526;87;21094;-77
2021/09/27 02:25:32;;;;;;;4.67;2.45;;;;;;;9.19;86.31;100413.19;1614030;87;21006;-77
2021/09/27 02:28:02;;;;;;;2.10;1.90;;;;;;;9.15;86.42;100407.97;1644005;87;20951;-77
2021/09/27 02:30:43;;;;;;;4.10;2.47;;;;;;;9.15;86.64;100412.00;1646701;85;20951;-78
2021/09/27 02:33:33;;;;;;;5.25;2.67;;;;;;;9.08;87.12;100404.52;1646213;86;21107;-77
2021/09/27 02:36:10;;;;;;;2.62;2.25;;;;;;;9.07;87.26;100409.58;1637686;87;21746;-78
2021/09/27 02:38:57;;;;;;;3.58;2.22;;;;;;;9.05;87.29;100414.37;1635491;87;21581;-77
2021/09/27 02:41:42;;;;;;;6.67;2.47;;;;;;;9.04;87.38;100414.58;1630532;87;21066;-80
2021/09/27 02:44:08;;;;;;;4.85;2.75;;;;;;;9.03;87.49;100422.33;1618875;88;21006;-79
2021/09/27 02:46:42;;;;;;;4.58;2.47;;;;;;;9.00;87.62;100416.89;1635833;87;21043;-80
2021/09/27 02:49:12;;;;;;;7.40;2.40;;;;;;;9.00;87.75;100418.23;1622454;87;21125;-79
2021/09/27 02:51:46;;;;;;;3.55;2.35;;;;;;;8.99;87.82;100411.74;1615079;87;21036;-80
2021/09/27 02:54:17;;;;;;;2.90;2.33;;;;;;;8.98;87.89;100415.45;1644767;87;21568;-80
2021/09/27 02:56:52;;;;;;;3.52;1.98;;;;;;;8.93;87.94;100420.66;1623423;87;21106;-80
2021/09/27 02:59:52;;;;;;;8.10;2.40;;;;;;;8.89;88.32;100428.86;1623516;87;21074;-79
2021/09/27 03:02:39;;;;;;;4.75;2.65;;;;;;;8.85;88.41;100423.13;1667451;85;21549;-78
2021/09/27 03:05:43;;;;;;;3.17;2.15;;;;;;;8.80;88.94;100419.45;1655254;85;21530;-78
2021/09/27 03:09:01;;;;;;;3.15;2.45;;;;;;;8.75;89.25;100416.92;1680142;85;21493;-82
2021/09/27 03:11:45;;;;;;;7.37;2.58;;;;;;;8.68;89.38;100421.50;1644335;87;20995;-80
2021/09/27 03:14:36;;;;;;;3.80;2.17;;;;;;;8.65;89.57;100423.81;1679353;85;21026;-79
2021/09/27 03:17:26;;;;;;;10.63;3.10;;;;;;;8.64;89.77;100424.84;1661210;85;21563;-78
2021/09/27 03:20:22;;;;;;;3.12;2.37;;;;;;;8.59;90.11;100424.16;1674120;85;20994;-79
2021/09/27 03:23:03;;;;;;;3.62;2.52;;;;;;;8.50;90.44;100422.80;1659249;86;21000;-82
2021/09/27 03:26:17;;;;;;;4.30;2.45;;;;;;;8.44;90.81;100423.66;1661437;85;21582;-86
2021/09/27 03:29:03;;;;;;;7.87;2.30;;;;;;;8.45;90.98;100418.61;1678721;85;20982;-84
2021/09/27 03:31:48;;;;;;;7.55;2.52;;;;;;;8.46;90.94;100425.61;1679533;84;21579;-81
2021/09/27 03:34:47;;;;;;;6.60;2.40;;;;;;;8.42;91.04;100424.92;1616304;86;21094;-83
2021/09/27 03:37:43;;;;;;;2.77;2.12;;;;;;;8.39;91.02;100425.38;1657516;85;21098;-78
2021/09/27 03:40:59;;;;;;;5.87;2.62;;;;;;;8.27;91.57;100430.05;1652751;86;21931;-77
2021/09/27 03:44:03;;;;;;;4.05;2.62;;;;;;;8.23;91.74;100419.98;1680177;85;21108;-80
2021/09/27 03:47:01;;;;;;;4.15;2.42;;;;;;;8.16;92.24;100418.67;1661046;85;22149;-78
2021/09/27 03:49:45;;;;;;;2.70;2.22;;;;;;;8.11;92.45;100429.22;1665143;85;21030;-79
2021/09/27 03:52:15;;;;;;;;;;;;;;;8.01;92.88;100428.86;1681802;85;21533;-77
2021/09/27 03:54:51;;;;;;;9.50;2.17;;;;;;;7.98;93.02;100429.30;1679267;84;20179;-79
2021/09/27 03:57:37;;;;;;;2.58;2.20;;;;;;;7.95;93.43;100429.75;1669956;85;21050;-80
2021/09/27 04:00:17;;;;;;;4.83;2.25;;;;;;;7.94;93.67;100436.13;1655549;86;21214;-79
2021/09/27 04:02:49;;;;;;;6.90;2.62;;;;;;;7.93;93.74;100438.50;1660719;85;21003;-79
2021/09/27 04:05:29;;;;;;;8.78;3.25;;;;;;;7.89;93.80;100435.44;1660567;86;21030;-79
2021/09/27 04:08:31;;;;;;;3.65;2.30;;;;;;;7.89;93.92;100436.77;1651631;86;22296;-79
2021/09/27 04:11:27;;;;;;;2.65;2.35;;;;;;;7.85;94.18;100446.79;1658737;85;21042;-79
2021/09/27 04:14:01;;;;;;;2.98;2.08;;;;;;;7.85;94.19;100438.24;1651425;86;21666;-77
2021/09/27 04:17:04;;;;;;;3.15;2.72;;;;;;;7.86;94.14;100436.39;1650865;86;20989;-77
2021/09/27 04:19:56;;;;;;;3.15;2.30;;;;;;;7.80;94.41;100439.91;1651365;86;21073;-78
2021/09/27 04:22:57;;;;;;;3.33;2.17;;;;;;;7.77;94.46;100439.80;1650977;86;21085;-76
2021/09/27 04:25:35;;;;;;;6.10;2.08;;;;;;;7.74;94.75;100442.09;1651669;86;21068;-82
2021/09/27 04:28:27;;;;;;;3.12;2.50;;;;;;;7.77;95.04;100439.01;1648160;86;21201;-82
2021/09/27 04:31:07;;;;;;;2.33;1.92;;;;;;;7.82;94.95;100439.16;1631834;87;21032;-80
2021/09/27 04:33:59;;;;;;;2.35;2.10;;;;;;;7.87;94.81;100448.20;1645780;86;20976;-82
2021/09/27 04:36:32;;;;;;;3.77;2.27;;;;;;;7.90;94.56;100448.31;1634975;87;21056;-80
2021/09/27 04:39:03;;;;;;;4.67;3.83;;;;;;;7.91;94.39;100449.14;1626046;87;21534;-79
2021/09/27 04:41:52;;;;;;;9.63;5.30;;;;;;;7.87;94.57;100440.69;1625743;87;21042;-82
2021/09/27 04:44:47;;;;;;;7.62;4.28;;;;;;;7.85;94.71;100436.91;1635329;86;20964;-79
2021/09/27 04:47:46;;;;;;;6.40;3.47;;;;;;;7.86;94.88;100446.55;1644027;86;21065;-80
2021/09/27 04:50:27;;;;;;;2.77;2.58;;;;;;;7.88;94.90;100447.17;1622994;88;21065;-79
2021/09/27 04:53:17;;;;;;;2.47;2.20;;;;;;;7.89;94.96;100456.86;1639032;87;21102;-79
2021/09/27 04:55:58;;;;;;;3.02;2.35;;;;;;;7.91;95.05;100449.14;1637083;87;21171;-78
2021/09/27 04:58:39;;;;;;;2.58;2.37;;;;;;;7.91;95.20;100443.78;1639153;87;20983;-78
2021/09/27 05:01:40;;;;;;;2.50;2.30;;;;;;;7.96;95.22;100454.13;1622850;86;21067;-75
2021/09/27 05:04:36;;;;;;;5.92;3.10;;;;;;;7.98;95.12;100448.56;1619793;88;21082;-77
2021/09/27 05:07:23;;;;;;;3.17;2.85;;;;;;;7.99;95.12;100448.36;1619755;88;21066;-77
2021/09/27 05:10:13;;;;;;;3.02;1.77;;;;;;;8.04;95.07;100456.58;1619709;87;21102;-78
2021/09/27 05:13:06;;;;;;;5.50;2.20;;;;;;;8.11;95.06;100445.80;1659756;86;21028;-76
2021/09/27 05:15:50;;;;;;;3.52;3.20;;;;;;;8.19;94.78;100441.05;1659893;86;20981;-82
2021/09/27 05:18:29;;;;;;;4.65;2.17;;;;;;;8.26;94.30;100449.02;1642526;86;21116;-81
2021/09/27 05:21:39;;;;;;;4.42;2.12;;;;;;;8.31;93.96;100442.52;1658633;86;21017;-75
2021/09/27 05:24:43;;;;;;;3.27;2.10;;;;;;;8.33;93.75;100435.09;1663294;86;20989;-76
2021/09/27 05:27:36;;;;;;;;;;;;;;;8.39;93.69;100434.76;1662067;86;21014;-75
2021/09/27 05:30:41;;;;;;;3.45;2.95;;;;;;;8.41;93.68;100444.73;1659815;85;20213;-81
2021/09/27 05:33:31;;;;;;;3.67;1.92;;;;;;;8.42;93.63;100449.05;1680323;84;21002;-86
2021/09/27 05:36:41;;;;;;;3.02;1.77;;;;;;;8.48;93.53;100452.22;1683661;85;21078;-83
2021/09/27 05:39:31;;;;;;;2.50;2.25;;;;;;;8.55;93.15;100459.67;1674257;84;21074;-76
2021/09/27 05:42:45;;;;;;;2.35;2.15;;;;;;;8.60;92.91;100456.65;1641495;85;21534;-76
2021/09/27 05:45:25;;;;;;;3.22;1.70;;;;;;;8.65;92.79;100452.80;1656289;86;20910;-78
2021/09/27 05:48:14;;;;;;;2.15;1.90;;;;;;;8.75;92.67;100455.80;1663577;86;21004;-75
2021/09/27 05:51:12;;;;;;;1.47;1.35;;;;;;;8.86;92.29;100456.14;1662834;86;21021;-76
2021/09/27 05:54:02;;;;;;;1.90;1.55;;;;;;;8.92;91.54;100452.03;1662791;86;22380;-74
2021/09/27 05:56:34;;;;;;;4.22;1.90;;;;;;;8.97;91.25;100462.13;1657364;86;20992;-74
2021/09/27 05:59:11;;;;;;;2.87;2.05;;;;;;;9.02;91.10;100460.92;1656691;86;21079;-75
2021/09/27 06:02:02;;;;;;;2.75;2.37;;;;;;;9.08;90.71;100458.70;1632641;86;21068;-75
2021/09/27 06:04:43;;;;;;;3.20;1.90;;;;;;;9.16;90.66;100460.58;1656223;86;21077;-76
2021/09/27 06:07:18;;;;;;;6.30;2.22;;;;;;;9.25;90.07;100471.05;1657993;86;22045;-76
2021/09/27 06:09:55;;;;;;;1.90;1.60;;;;;;;9.28;89.83;100463.87;1661290;85;21147;-77
2021/09/27 06:12:39;;;;;;;2.67;2.27;;;;;;;9.33;89.51;100459.48;1660961;85;21049;-76
2021/09/27 06:15:09;;;;;;;3.00;2.30;;;;;;;9.40;89.47;100458.09;1659846;86;21078;-77
2021/09/27 06:18:05;;;;;;;7.65;3.27;;;;;;;9.46;89.14;100464.71;1661349;85;21570;-78
2021/09/27 06:20:51;;;;;;;6.20;5.03;;;;;;;9.57;88.91;100461.29;1661532;85;21532;-79
2021/09/27 06:23:36;;;;;;;4.30;3.62;;;;;;;9.67;88.07;100466.66;1657335;86;20947;-80
2021/09/27 06:26:10;;;;;;;;;;;;;;;9.70;86.95;100467.02;1662452;85;21576;-80
2021/09/27 06:29:03;;;;;;;;;;;;;;;9.75;86.69;100471.19;1663905;85;20142;-83
2021/09/27 06:31:35;;;;;;;4.47;1.70;;;;;;;9.80;86.31;100471.34;1653325;86;20174;-80
2021/09/27 06:34:34;;;;;;;3.87;2.08;;;;;;;9.89;85.80;100473.19;1626850;86;21582;-82
2021/09/27 06:37:00;;;;;;;3.50;1.52;;;;;;;9.95;84.90;100468.26;1674706;85;21557;-82
2021/09/27 06:39:28;;;;;;;1.92;1.72;;;;;;;10.02;84.41;100470.35;1661582;86;21058;-81
2021/09/27 06:41:54;;;;;;;4.80;2.42;;;;;;;10.10;84.31;100474.58;1661136;85;21042;-80
2021/09/27 06:44:22;;;;;;;6.22;1.65;;;;;;;10.16;84.37;100473.19;1653524;86;21174;-82
2021/09/27 06:46:48;;;;;;;7.17;1.67;;;;;;;10.28;83.54;100467.84;1660970;85;21547;-82
2021/09/27 06:49:14;;;;;;;3.55;1.72;;;;;;;10.36;83.16;100468.33;1661520;86;21033;-83
2021/09/27 06:51:41;;;;;;;2.70;1.87;;;;;;;10.44;81.80;100469.36;1653134;86;20989;-83
2021/09/27 06:54:09;;;;;;;1.72;1.57;;;;;;;10.54;81.12;100474.70;1652624;86;20998;-85
2021/09/27 06:56:36;;;;;;;5.92;1.75;;;;;;;10.59;79.57;100467.59;1659479;85;21355;-81
2021/09/27 06:59:02;;;;;;;2.50;1.37;;;;;;;10.67;79.46;100475.31;1633201;87;21102;-79
2021/09/27 07:01:29;;;;;;;3.10;2.77;;;;;;;10.72;78.14;100471.41;1606545;87;21546;-76
2021/09/27 07:03:55;;;;;;;1.98;1.77;;;;;;;10.75;78.04;100480.35;1596892;87;21039;-76
2021/09/27 07:06:22;;;;;;;2.33;1.80;;;;;;;10.81;77.85;100466.50;1605932;88;21025;-77
2021/09/27 07:08:48;;;;;;;3.10;1.30;;;;;;;10.85;76.79;100481.95;1612160;89;21086;-88
2021/09/27 07:11:15;;;;;;;1.47;1.27;;;;;;;10.90;76.36;100472.66;1624280;88;21164;-78
2021/09/27 07:13:42;;;;;;;1.07;1.07;;;;;;;10.94;76.42;100469.78;1619006;87;20981;-81
2021/09/27 07:16:09;;;;;;;3.55;1.40;;;;;;;11.01;76.13;100478.28;1618637;87;21006;-82
2021/09/27 07:18:36;;;;;;;3.35;1.30;;;;;;;11.07;75.58;100463.38;1617312;87;21590;-81
2021/09/27 07:21:05;;;;;;;4.62;1.15;;;;;;;11.14;74.90;100464.58;1639304;87;21034;-79
2021/09/27 07:23:38;;;;;;;1.25;1.15;;;;;;;11.21;74.18;100462.08;1613790;87;21432;-77
2021/09/27 07:26:00;;;;;;;5.80;1.07;;;;;;;11.25;73.32;100467.80;1604992;88;21622;-79
2021/09/27 07:28:26;;;;;;;3.05;1.25;;;;;;;11.27;73.42;100469.20;1611922;87;20994;-86
2021/09/27 07:30:52;;;;;;;1.02;1.02;;;;;;;11.32;73.73;100473.88;1591562;89;21011;-87
2021/09/27 07:33:19;;;;;;;2.27;2.08;;;;;;;11.36;73.82;100469.16;1613875;88;21060;-87
2021/09/27 07:35:46;;;;;;;2.30;2.10;;;;;;;11.38;73.08;100479.67;1643215;86;21213;-87
2021/09/27 07:38:12;;;;;;;1.47;1.37;;;;;;;11.39;71.90;100479.97;1637527;87;21070;-79
2021/09/27 07:40:39;;;;;;;1.42;1.20;;;;;;;11.44;71.64;100480.61;1612794;87;21033;-79
2021/09/27 07:43:06;;;;;;;1.57;1.47;;;;;;;11.48;71.94;100473.17;1624193;88;21017;-79
2021/09/27 07:45:34;;;;;;;2.33;0.90;;;;;;;11.57;71.19;100480.35;1639763;87;21592;-78
2021/09/27 07:48:07;;;;;;;1.00;0.98;;;;;;;11.58;70.40;100477.95;1618715;87;21100;-79
2021/09/27 07:50:34;;;;;;;3.00;1.05;;;;;;;11.61;70.32;100473.42;1618789;87;20995;-79
2021/09/27 07:53:00;;;;;;;2.05;1.20;;;;;;;11.64;70.04;100470.28;1639369;87;21485;-78
2021/09/27 07:55:27;;;;;;;1.20;1.10;;;;;;;11.66;69.88;100470.84;1639375;87;21188;-79
2021/09/27 07:57:53;;;;;;;2.67;1.40;;;;;;;11.68;70.08;100473.61;1618272;87;21614;-79
2021/09/27 08:00:20;;;;;;;1.37;1.05;;;;;;;11.69;70.22;100472.55;1638956;86;21147;-81
2021/09/27 08:02:46;;;;;;;0.72;0.72;;;;;;;11.68;70.57;100465.52;1639018;87;21098;-79
2021/09/27 08:05:17;;;;;;;0.80;0.80;;;;;;;11.72;69.88;100483.38;1638258;87;21047;-81
2021/09/27 08:07:44;;;;;;;1.02;0.95;;;;;;;11.77;70.18;100479.47;1621868;87;21066;-81
2021/09/27 08:10:12;;;;;;;13.48;2.08;;;;;;;11.83;70.23;100477.17;1617765;88;21559;-80
2021/09/27 08:12:38;;;;;;;2.17;1.95;;;;;;;11.89;70.37;100474.06;1605835;88;21112;-80
2021/09/27 08:15:08;;;;;;;1.55;1.20;;;;;;;11.92;70.51;100473.05;1647536;86;21010;-79
2021/09/27 08:17:35;;;;;;;1.12;1.00;;;;;;;12.00;70.66;100469.14;1648309;86;20986;-80
2021/09/27 08:20:02;;;;;;;5.03;1.15;;;;;;;12.10;70.33;100472.03;1651349;85;21523;-78
2021/09/27 08:22:30;;;;;;;2.45;1.12;;;;;;;12.16;70.19;100468.38;1639807;85;21049;-79
2021/09/27 08:24:56;;;;;;;1.50;1.40;;;;;;;12.27;70.17;100481.01;1647711;86;21194;-79
2021/09/27 08:27:22;;;;;;;3.08;1.20;;;;;;;12.33;69.16;100472.45;1606321;87;21071;-76
2021/09/27 08:29:49;;;;;;;4.03;2.40;;;;;;;12.39;69.24;100472.31;1629025;87;21067;-74
2021/09/27 08:32:15;;;;;;;0.90;0.90;;;;;;;12.41;66.84;100474.25;1639082;87;21046;-76
2021/09/27 08:34:43;;;;;;;1.47;1.20;;;;;;;12.37;66.05;100472.28;1620263;87;21043;-76
2021/09/27 08:37:10;;;;;;;2.22;1.00;;;;;;;12.39;66.56;100467.45;1618162;87;21205;-76
2021/09/27 08:39:37;;;;;;;1.10;0.90;;;;;;;12.40;65.89;100471.79;1619800;87;21026;-76
2021/09/27 08:42:09;;;;;;;1.27;1.15;;;;;;;12.45;66.20;100468.66;1638934;87;21056;-77
2021/09/27 08:44:54;;;;;;;4.95;1.00;;;;;;;12.54;65.98;100471.77;1637462;87;21003;-77
2021/09/27 08:47:35;;;;;;;0.85;0.80;;;;;;;12.64;65.11;100478.17;1621761;87;21118;-81
2021/09/27 08:50:07;;;;;;;4.30;2.33;;;;;;;12.75;63.09;100475.11;1623736;88;21077;-80
2021/09/27 08:52:38;;;;;;;0.93;0.88;;;;;;;12.79;62.11;100471.38;1611594;89;21043;-78
2021/09/27 08:55:09;;;;;;;1.85;0.95;;;;;;;12.83;62.41;100467.95;1611580;88;21623;-83
2021/09/27 08:58:01;;;;;;;4.28;1.30;;;;;;;12.93;62.51;100460.02;1611776;89;21071;-84
2021/09/27 09:00:42;;;;;;;1.77;0.60;;;;;;;13.08;62.10;100474.28;1617350;87;21050;-76
2021/09/27 09:03:26;;;;;;;0.90;0.90;;;;;;;13.15;59.28;100458.73;1591729;88;21084;-77
2021/09/27 09:06:12;;;;;;;1.27;0.80;;;;;;;13.15;58.68;100466.84;1650967;86;21002;-76
2021/09/27 09:09:10;;;;;;;4.67;0.70;;;;;;;13.16;58.54;100464.97;1650513;86;21558;-79
2021/09/27 09:11:42;;;;;;;1.00;0.80;;;;;;;13.16;57.73;100463.08;1630399;86;21117;-78
2021/09/27 09:14:28;;;;;;;1.22;0.80;;;;;;;13.07;56.67;100465.89;1636663;86;21068;-76
2021/09/27 09:16:57;;;;;;;3.10;1.07;;;;;;;13.04;57.54;100468.53;1646789;86;20996;-76
2021/09/27 09:19:27;;;;;;;1.17;1.02;;;;;;;13.09;58.46;100459.16;1644027;86;21553;-77
2021/09/27 09:21:57;;;;;;;0.93;0.93;;;;;;;13.19;58.37;100463.14;1610342;87;21625;-77
2021/09/27 09:24:35;;;;;;;0.85;0.85;;;;;;;13.25;58.14;100461.59;1611268;86;21022;-77
2021/09/27 09:27:06;;;;;;;0.80;0.80;;;;;;;13.34;58.56;100459.28;1634424;85;21681;-81
2021/09/27 09:29:38;;;;;;;1.80;0.90;;;;;;;13.39;58.25;100467.45;1640060;86;21021;-80
2021/09/27 09:32:28;;;;;;;1.17;1.07;;;;;;;13.37;58.53;100475.83;1634343;86;21514;-79
2021/09/27 09:35:18;;;;;;;0.90;0.90;;;;;;;13.33;58.53;100469.83;1640192;86;20996;-80
2021/09/27 09:37:54;;;;;;;3.87;1.02;;;;;;;13.30;58.77;100477.05;1605420;89;21024;-79
2021/09/27 09:40:28;;;;;;;1.47;1.27;;;;;;;13.24;59.26;100468.59;1610509;87;21083;-78
2021/09/27 09:43:04;;;;;;;2.90;1.40;;;;;;;13.23;59.88;100477.78;1634852;87;21051;-78
2021/09/27 09:45:35;;;;;;;4.00;1.60;;;;;;;13.27;60.17;100474.86;1631283;87;21033;-79
2021/09/27 09:48:22;;;;;;;2.77;1.30;;;;;;;13.26;60.24;100475.92;1610759;86;21115;-77
2021/09/27 09:50:54;;;;;;;2.22;1.67;;;;;;;13.33;60.36;100471.17;1611619;87;20974;-80
2021/09/27 09:53:29;;;;;;;3.37;1.82;;;;;;;13.37;60.45;100466.38;1649148;86;21012;-72
2021/09/27 09:56:06;;;;;;;2.02;1.20;;;;;;;13.44;60.63;100469.70;1649932;86;21223;-75
2021/09/27 09:58:38;;;;;;;1.05;0.98;;;;;;;13.51;60.28;100474.94;1650793;86;21613;-76
2021/09/27 10:01:25;;;;;;;2.27;1.70;;;;;;;13.52;60.33;100472.52;1652516;85;21072;-79
2021/09/27 10:04:10;;;;;;;2.80;2.12;;;;;;;13.49;60.88;100476.53;1663957;85;21008;-81
2021/09/27 10:06:45;;;;;;;2.35;1.40;;;;;;;13.41;61.00;100472.91;1663772;85;21015;-81
2021/09/27 10:09:36;;;;;;;6.92;2.83;;;;;;;13.38;61.52;100471.25;1624430;87;21017;-78
2021/09/27 10:12:10;;;;;;;15.13;5.62;;;;;;;13.30;62.24;100468.42;1639622;87;20963;-80
2021/09/27 10:14:44;;;;;;;20.35;6.85;;;;;;;13.22;63.08;100473.44;1638991;87;21035;-80
2021/09/27 10:17:35;;;;;;;4.28;3.20;;;;;;;13.20;63.47;100470.16;1638249;87;21509;-80
2021/09/27 10:20:09;;;;;;;3.22;2.27;;;;;;;13.20;63.51;100473.67;1638298;87;20960;-78
2021/09/27 10:22:39;;;;;;;4.30;2.17;;;;;;;13.25;63.59;100474.28;1636855;87;20975;-80
2021/09/27 10:25:35;;;;;;;6.05;2.22;;;;;;;13.28;63.64;100475.16;1652953;86;21023;-81
2021/09/27 10:28:04;;;;;;;2.50;1.50;;;;;;;13.30;63.59;100479.76;1639184;86;22167;-87
2021/09/27 10:30:42;;;;;;;6.08;1.72;;;;;;;13.26;64.06;100488.08;1652429;86;21072;-82
2021/09/27 10:33:25;;;;;;;3.80;2.25;;;;;;;13.22;64.50;100481.55;1639634;87;21209;-83
2021/09/27 10:36:07;;;;;;;1.55;1.45;;;;;;;13.20;64.81;100476.38;1637642;87;20987;-80
2021/09/27 10:38:45;;;;;;;3.47;2.60;;;;;;;13.21;64.97;100480.72;1629189;87;21031;-84
2021/09/27 10:41:25;;;;;;;1.62;1.52;;;;;;;13.17;65.48;100481.46;1602236;88;20980;-85
2021/09/27 10:43:58;;;;;;;3.58;2.27;;;;;;;13.13;65.57;100482.50;1659091;86;20996;-83
2021/09/27 10:46:33;;;;;;;1.42;1.32;;;;;;;13.06;65.89;100484.50;1662072;86;26467;-74
2021/09/27 10:48:59;;;;;;;2.72;1.90;;;;;;;13.01;66.20;100489.82;1654044;86;22430;-81
2021/09/27 10:51:34;;;;;;;3.72;1.65;;;;;;;13.02;66.20;100481.48;1663971;85;20935;-79
2021/09/27 10:54:15;;;;;;;1.80;1.35;;;;;;;13.03;66.15;100493.11;1664308;85;21636;-83
2021/09/27 10:56:52;;;;;;;2.83;1.42;;;;;;;13.06;66.17;100483.97;1654139;86;21090;-83
2021/09/27 10:59:43;;;;;;;1.60;1.50;;;;;;;13.13;66.19;100482.50;1677202;85;20970;-86
2021/09/27 11:02:39;;;;;;;2.70;1.52;;;;;;;13.19;66.27;100486.09;1671441;84;21891;-85
2021/09/27 11:05:31;;;;;;;4.40;1.47;;;;;;;13.28;65.74;100485.96;1687783;85;20989;-84
2021/09/27 11:10:50;;;;;;;1.30;1.20;;;;;;;13.37;65.08;100482.59;1647425;87;21060;-89
2021/09/27 11:13:39;;;;;;;1.80;1.65;;;;;;;13.38;65.07;100486.11;1647274;86;21020;-78
2021/09/27 11:16:34;;;;;;;4.00;1.75;;;;;;;13.36;65.25;100480.13;1647443;87;21146;-81
2021/09/27 11:19:11;;;;;;;2.00;1.70;;;;;;;13.36;65.22;100480.95;1646582;86;21661;-83
2021/09/27 11:21:47;;;;;;;1.52;1.35;;;;;;;13.33;65.50;100480.07;1630448;87;21044;-83
2021/09/27 11:24:24;;;;;;;1.90;1.70;;;;;;;13.30;65.53;100479.76;1627650;87;21018;-85
2021/09/27 11:27:18;;;;;;;4.70;1.42;;;;;;;13.22;66.06;100472.91;1623243;87;20930;-79
2021/09/27 11:29:51;;;;;;;3.87;1.82;;;;;;;13.21;65.88;100471.27;1647274;87;21996;-84
2021/09/27 11:32:28;;;;;;;3.45;1.62;;;;;;;13.26;65.74;100472.69;1647491;87;21557;-84
2021/09/27 11:35:02;;;;;;;1.42;1.32;;;;;;;13.28;65.79;100480.56;1647401;87;21029;-83
2021/09/27 11:37:36;;;;;;;3.22;1.70;;;;;;;13.34;66.10;100476.84;1646249;87;21124;-77
2021/09/27 11:40:30;;;;;;;2.35;1.65;;;;;;;13.42;66.45;100481.31;1622899;88;21108;-77
2021/09/27 11:43:24;;;;;;;2.15;1.52;;;;;;;13.45;66.06;100477.28;1622373;87;21534;-81
2021/09/27 11:45:57;;;;;;;2.85;1.80;;;;;;;13.43;65.03;100482.92;1620891;88;21023;-81
2021/09/27 11:48:42;;;;;;;8.28;2.27;;;;;;;13.48;64.96;100489.75;1622377;88;20945;-83
2021/09/27 11:51:15;;;;;;;6.62;1.67;;;;;;;13.53;64.41;100486.30;1609968;86;21038;-80
2021/09/27 11:54:02;;;;;;;4.55;2.00;;;;;;;13.54;64.21;100483.35;1593983;89;46210;-81
2021/09/27 11:57:06;;;;;;;5.90;2.92;;;;;;;13.51;64.16;100490.63;1616734;88;21079;-82
2021/09/27 12:00:03;;;;;;;3.52;2.80;;;;;;;13.48;64.38;100486.23;1616009;87;21069;-77
2021/09/27 12:02:55;;;;;;;2.58;2.37;;;;;;;13.47;64.66;100485.97;1650342;85;21072;-77
2021/09/27 12:05:51;;;;;;;4.70;2.50;;;;;;;13.50;64.47;100484.92;1639817;87;21081;-80
2021/09/27 12:08:28;;;;;;;4.58;3.27;;;;;;;13.49;63.62;100479.23;1635100;87;21097;-79
2021/09/27 12:11:00;;;;;;;4.28;2.50;;;;;;;13.54;63.82;100478.48;1657625;85;21058;-78
2021/09/27 12:13:50;;;;;;;2.90;1.62;;;;;;;13.64;64.22;100481.32;1639435;86;20920;-80
2021/09/27 12:16:37;;;;;;;2.62;2.42;;;;;;;13.83;64.37;100486.70;1664170;85;21019;-74
2021/09/27 12:19:24;;;;;;;2.95;1.82;;;;;;;13.94;65.01;100484.95;1634061;87;21024;-78
2021/09/27 12:22:06;;;;;;;3.72;1.98;;;;;;;13.97;65.32;100483.90;1645275;85;20968;-80
2021/09/27 12:24:41;;;;;;;2.25;2.02;;;;;;;14.01;65.11;100481.50;1635426;87;21098;-74
2021/09/27 12:27:23;;;;;;;2.98;1.80;;;;;;;14.00;65.09;100488.00;1630599;88;21047;-74
2021/09/27 12:30:08;;;;;;;2.02;1.82;;;;;;;13.96;65.50;100484.96;1632437;86;20983;-88
2021/09/27 12:32:42;;;;;;;4.37;2.00;;;;;;;13.87;65.89;100478.36;1633583;86;26551;-87